sensor_id;sensor_type;location;lat;lon;timestamp;temperature;humidity
8463;DHT22;4268;52.506;13.462;2022-08-01T00:01:37;22.70;87.80
8463;DHT22;4268;52.506;13.462;2022-08-01T00:04:03;22.60;88.10
8463;DHT22;4268;52.506;13.462;2022-08-01T00:06:29;22.60;88.10
8463;DHT22;4268;52.506;13.462;2022-08-01T00:08:55;22.60;88.50
8463;DHT22;4268;52.506;13.462;2022-08-01T00:11:21;22.60;88.60
8463;DHT22;4268;52.506;13.462;2022-08-01T00:13:46;22.70;89.10
8463;DHT22;4268;52.506;13.462;2022-08-01T00:16:12;22.60;89.40
8463;DHT22;4268;52.506;13.462;2022-08-01T00:18:37;22.60;89.60
8463;DHT22;4268;52.506;13.462;2022-08-01T00:21:04;22.80;90.10
8463;DHT22;4268;52.506;13.462;2022-08-01T00:23:30;22.50;90.10
8463;DHT22;4268;52.506;13.462;2022-08-01T00:25:56;22.40;90.50
8463;DHT22;4268;52.506;13.462;2022-08-01T00:28:22;22.40;90.70
8463;DHT22;4268;52.506;13.462;2022-08-01T00:30:47;22.30;91.00
8463;DHT22;4268;52.506;13.462;2022-08-01T00:33:13;22.30;91.30
8463;DHT22;4268;52.506;13.462;2022-08-01T00:35:38;22.30;91.50
8463;DHT22;4268;52.506;13.462;2022-08-01T00:38:04;21.70;91.60
8463;DHT22;4268;52.506;13.462;2022-08-01T00:40:29;22.30;92.20
8463;DHT22;4268;52.506;13.462;2022-08-01T00:42:55;22.30;92.60
8463;DHT22;4268;52.506;13.462;2022-08-01T00:45:20;22.20;92.80
8463;DHT22;4268;52.506;13.462;2022-08-01T00:47:46;22.20;93.20
8463;DHT22;4268;52.506;13.462;2022-08-01T00:50:12;22.10;93.50
8463;DHT22;4268;52.506;13.462;2022-08-01T00:52:39;22.10;94.00
8463;DHT22;4268;52.506;13.462;2022-08-01T00:55:05;21.80;94.10
8463;DHT22;4268;52.506;13.462;2022-08-01T00:57:31;22.10;94.80
8463;DHT22;4268;52.506;13.462;2022-08-01T00:59:56;22.30;95.80
8463;DHT22;4268;52.506;13.462;2022-08-01T01:02:22;22.00;95.80
8463;DHT22;4268;52.506;13.462;2022-08-01T01:04:47;21.90;96.30
8463;DHT22;4268;52.506;13.462;2022-08-01T01:07:31;21.10;96.40
8463;DHT22;4268;52.506;13.462;2022-08-01T01:12:50;21.80;97.80
8463;DHT22;4268;52.506;13.462;2022-08-01T01:15:26;21.80;98.10
8463;DHT22;4268;52.506;13.462;2022-08-01T01:18:02;21.80;98.70
8463;DHT22;4268;52.506;13.462;2022-08-01T01:20:32;21.90;99.20
8463;DHT22;4268;52.506;13.462;2022-08-01T01:23:56;21.40;99.40
8463;DHT22;4268;52.506;13.462;2022-08-01T01:26:13;21.70;99.90
8463;DHT22;4268;52.506;13.462;2022-08-01T01:29:00;21.60;99.90
8463;DHT22;4268;52.506;13.462;2022-08-01T01:31:27;21.60;99.90
8463;DHT22;4268;52.506;13.462;2022-08-01T01:33:56;21.50;99.90
8463;DHT22;4268;52.506;13.462;2022-08-01T01:36:24;21.60;99.90
8463;DHT22;4268;52.506;13.462;2022-08-01T01:38:51;21.60;99.90
8463;DHT22;4268;52.506;13.462;2022-08-01T01:41:18;21.40;99.90
8463;DHT22;4268;52.506;13.462;2022-08-01T01:43:45;21.50;99.90
8463;DHT22;4268;52.506;13.462;2022-08-01T01:46:12;20.50;99.90
8463;DHT22;4268;52.506;13.462;2022-08-01T01:48:39;21.50;99.90
8463;DHT22;4268;52.506;13.462;2022-08-01T01:51:05;21.50;99.90
8463;DHT22;4268;52.506;13.462;2022-08-01T01:53:34;21.30;99.90
8463;DHT22;4268;52.506;13.462;2022-08-01T01:56:01;21.40;99.90
8463;DHT22;4268;52.506;13.462;2022-08-01T01:58:27;21.40;99.90
8463;DHT22;4268;52.506;13.462;2022-08-01T02:00:56;21.40;99.90
8463;DHT22;4268;52.506;13.462;2022-08-01T02:03:22;21.40;99.90
8463;DHT22;4268;52.506;13.462;2022-08-01T02:05:51;21.50;99.90
8463;DHT22;4268;52.506;13.462;2022-08-01T02:08:17;21.30;99.90
8463;DHT22;4268;52.506;13.462;2022-08-01T02:10:45;21.50;99.90
8463;DHT22;4268;52.506;13.462;2022-08-01T02:13:36;21.30;99.90
8463;DHT22;4268;52.506;13.462;2022-08-01T02:16:03;21.30;99.90
8463;DHT22;4268;52.506;13.462;2022-08-01T02:18:30;21.30;99.90
8463;DHT22;4268;52.506;13.462;2022-08-01T02:20:57;21.30;99.90
8463;DHT22;4268;52.506;13.462;2022-08-01T02:23:24;21.20;99.90
8463;DHT22;4268;52.506;13.462;2022-08-01T02:25:54;21.20;99.90
8463;DHT22;4268;52.506;13.462;2022-08-01T02:28:24;21.20;99.90
8463;DHT22;4268;52.506;13.462;2022-08-01T02:30:56;21.20;99.90
8463;DHT22;4268;52.506;13.462;2022-08-01T02:33:26;21.20;99.90
8463;DHT22;4268;52.506;13.462;2022-08-01T02:35:56;20.90;99.90
8463;DHT22;4268;52.506;13.462;2022-08-01T02:38:26;21.10;99.90
8463;DHT22;4268;52.506;13.462;2022-08-01T02:40:53;21.10;99.90
8463;DHT22;4268;52.506;13.462;2022-08-01T02:43:24;20.90;99.90
8463;DHT22;4268;52.506;13.462;2022-08-01T02:45:54;21.00;99.90
8463;DHT22;4268;52.506;13.462;2022-08-01T02:48:21;21.00;99.90
8463;DHT22;4268;52.506;13.462;2022-08-01T02:50:49;20.90;99.90
8463;DHT22;4268;52.506;13.462;2022-08-01T02:53:18;20.90;99.90
8463;DHT22;4268;52.506;13.462;2022-08-01T02:55:45;20.90;99.90
8463;DHT22;4268;52.506;13.462;2022-08-01T02:58:14;20.90;99.90
8463;DHT22;4268;52.506;13.462;2022-08-01T03:00:42;20.90;99.90
8463;DHT22;4268;52.506;13.462;2022-08-01T03:03:08;20.90;99.90
8463;DHT22;4268;52.506;13.462;2022-08-01T03:05:35;20.90;99.90
8463;DHT22;4268;52.506;13.462;2022-08-01T03:08:02;21.10;99.90
8463;DHT22;4268;52.506;13.462;2022-08-01T03:10:28;21.00;99.90
8463;DHT22;4268;52.506;13.462;2022-08-01T03:12:55;21.00;99.90
8463;DHT22;4268;52.506;13.462;2022-08-01T03:15:23;21.00;99.90
8463;DHT22;4268;52.506;13.462;2022-08-01T03:17:51;21.00;99.90
8463;DHT22;4268;52.506;13.462;2022-08-01T03:20:19;20.60;99.90
8463;DHT22;4268;52.506;13.462;2022-08-01T03:22:47;20.90;99.90
8463;DHT22;4268;52.506;13.462;2022-08-01T03:25:15;20.80;99.90
8463;DHT22;4268;52.506;13.462;2022-08-01T03:27:43;20.80;99.90
8463;DHT22;4268;52.506;13.462;2022-08-01T03:30:11;20.80;99.90
8463;DHT22;4268;52.506;13.462;2022-08-01T03:32:37;20.70;99.90
8463;DHT22;4268;52.506;13.462;2022-08-01T03:35:03;20.70;99.90
8463;DHT22;4268;52.506;13.462;2022-08-01T03:37:42;20.70;99.90
8463;DHT22;4268;52.506;13.462;2022-08-01T03:40:23;20.70;99.90
8463;DHT22;4268;52.506;13.462;2022-08-01T03:42:56;20.80;99.90
8463;DHT22;4268;52.506;13.462;2022-08-01T03:45:26;20.80;99.90
8463;DHT22;4268;52.506;13.462;2022-08-01T03:47:59;20.80;99.90
8463;DHT22;4268;52.506;13.462;2022-08-01T03:50:25;20.90;99.90
8463;DHT22;4268;52.506;13.462;2022-08-01T03:52:53;20.80;99.90
8463;DHT22;4268;52.506;13.462;2022-08-01T03:55:20;20.90;99.90
8463;DHT22;4268;52.506;13.462;2022-08-01T03:57:47;20.90;99.90
8463;DHT22;4268;52.506;13.462;2022-08-01T04:00:14;20.90;99.90
8463;DHT22;4268;52.506;13.462;2022-08-01T04:02:45;20.90;99.90
8463;DHT22;4268;52.506;13.462;2022-08-01T04:05:11;20.90;99.90
8463;DHT22;4268;52.506;13.462;2022-08-01T04:07:36;20.90;99.90
8463;DHT22;4268;52.506;13.462;2022-08-01T04:10:04;20.10;99.90
8463;DHT22;4268;52.506;13.462;2022-08-01T04:12:30;21.00;99.90
8463;DHT22;4268;52.506;13.462;2022-08-01T04:14:55;21.00;99.90
8463;DHT22;4268;52.506;13.462;2022-08-01T04:17:21;21.00;99.90
8463;DHT22;4268;52.506;13.462;2022-08-01T04:19:46;20.90;99.90
8463;DHT22;4268;52.506;13.462;2022-08-01T04:22:14;21.10;99.90
8463;DHT22;4268;52.506;13.462;2022-08-01T04:24:41;20.90;99.90
8463;DHT22;4268;52.506;13.462;2022-08-01T04:27:13;20.90;99.90
8463;DHT22;4268;52.506;13.462;2022-08-01T04:29:39;20.90;99.90
8463;DHT22;4268;52.506;13.462;2022-08-01T04:32:08;20.80;99.90
8463;DHT22;4268;52.506;13.462;2022-08-01T04:34:38;21.50;99.90
8463;DHT22;4268;52.506;13.462;2022-08-01T04:37:05;20.90;99.90
8463;DHT22;4268;52.506;13.462;2022-08-01T04:39:34;20.80;99.90
8463;DHT22;4268;52.506;13.462;2022-08-01T04:42:04;20.80;99.90
8463;DHT22;4268;52.506;13.462;2022-08-01T04:44:30;21.00;99.90
8463;DHT22;4268;52.506;13.462;2022-08-01T04:46:59;20.90;99.90
8463;DHT22;4268;52.506;13.462;2022-08-01T04:49:25;21.10;99.90
8463;DHT22;4268;52.506;13.462;2022-08-01T04:51:52;21.10;99.90
8463;DHT22;4268;52.506;13.462;2022-08-01T04:54:23;21.10;99.90
8463;DHT22;4268;52.506;13.462;2022-08-01T04:56:50;21.00;99.90
8463;DHT22;4268;52.506;13.462;2022-08-01T04:59:15;21.00;99.90
8463;DHT22;4268;52.506;13.462;2022-08-01T05:01:59;21.00;99.90
8463;DHT22;4268;52.506;13.462;2022-08-01T05:04:25;21.00;99.90
8463;DHT22;4268;52.506;13.462;2022-08-01T05:06:50;21.00;99.90
8463;DHT22;4268;52.506;13.462;2022-08-01T05:09:16;21.00;99.90
8463;DHT22;4268;52.506;13.462;2022-08-01T05:11:41;21.00;99.90
8463;DHT22;4268;52.506;13.462;2022-08-01T05:14:07;21.00;99.90
8463;DHT22;4268;52.506;13.462;2022-08-01T05:16:32;20.90;99.90
8463;DHT22;4268;52.506;13.462;2022-08-01T05:18:58;20.90;99.90
8463;DHT22;4268;52.506;13.462;2022-08-01T05:21:23;20.90;99.90
8463;DHT22;4268;52.506;13.462;2022-08-01T05:23:49;20.90;99.90
8463;DHT22;4268;52.506;13.462;2022-08-01T05:26:14;20.90;99.90
8463;DHT22;4268;52.506;13.462;2022-08-01T05:28:40;20.90;99.90
8463;DHT22;4268;52.506;13.462;2022-08-01T05:31:05;20.90;99.90
8463;DHT22;4268;52.506;13.462;2022-08-01T05:33:30;20.50;99.90
8463;DHT22;4268;52.506;13.462;2022-08-01T05:35:56;20.90;99.90
8463;DHT22;4268;52.506;13.462;2022-08-01T05:38:21;20.80;99.90
8463;DHT22;4268;52.506;13.462;2022-08-01T05:40:47;20.80;99.90
8463;DHT22;4268;52.506;13.462;2022-08-01T05:43:12;20.80;99.90
8463;DHT22;4268;52.506;13.462;2022-08-01T05:45:38;20.80;99.90
8463;DHT22;4268;52.506;13.462;2022-08-01T05:48:04;20.90;99.90
8463;DHT22;4268;52.506;13.462;2022-08-01T05:50:29;20.90;99.90
8463;DHT22;4268;52.506;13.462;2022-08-01T05:52:55;21.00;99.90
8463;DHT22;4268;52.506;13.462;2022-08-01T05:55:20;21.00;99.90
8463;DHT22;4268;52.506;13.462;2022-08-01T05:57:45;21.00;99.90
8463;DHT22;4268;52.506;13.462;2022-08-01T06:00:11;21.10;99.90
8463;DHT22;4268;52.506;13.462;2022-08-01T06:02:41;21.10;99.90
8463;DHT22;4268;52.506;13.462;2022-08-01T06:05:08;21.30;99.90
8463;DHT22;4268;52.506;13.462;2022-08-01T06:07:34;21.30;99.90
8463;DHT22;4268;52.506;13.462;2022-08-01T06:09:59;21.40;99.90
8463;DHT22;4268;52.506;13.462;2022-08-01T06:12:25;21.40;99.90
8463;DHT22;4268;52.506;13.462;2022-08-01T06:14:50;21.40;99.90
8463;DHT22;4268;52.506;13.462;2022-08-01T06:17:16;21.50;99.90
8463;DHT22;4268;52.506;13.462;2022-08-01T06:19:41;21.40;99.90
8463;DHT22;4268;52.506;13.462;2022-08-01T06:22:07;21.50;99.90
8463;DHT22;4268;52.506;13.462;2022-08-01T06:24:32;21.50;99.90
8463;DHT22;4268;52.506;13.462;2022-08-01T06:26:58;21.50;99.90
8463;DHT22;4268;52.506;13.462;2022-08-01T06:29:23;21.40;99.90
8463;DHT22;4268;52.506;13.462;2022-08-01T06:31:49;21.50;99.90
8463;DHT22;4268;52.506;13.462;2022-08-01T06:34:15;21.40;99.90
8463;DHT22;4268;52.506;13.462;2022-08-01T06:36:40;21.50;99.90
8463;DHT22;4268;52.506;13.462;2022-08-01T06:39:06;21.50;99.90
8463;DHT22;4268;52.506;13.462;2022-08-01T06:41:32;21.50;99.90
8463;DHT22;4268;52.506;13.462;2022-08-01T06:43:57;21.40;99.90
8463;DHT22;4268;52.506;13.462;2022-08-01T06:46:25;21.40;99.90
8463;DHT22;4268;52.506;13.462;2022-08-01T06:48:50;21.40;99.90
8463;DHT22;4268;52.506;13.462;2022-08-01T06:51:16;21.40;99.90
8463;DHT22;4268;52.506;13.462;2022-08-01T06:53:45;21.50;99.90
8463;DHT22;4268;52.506;13.462;2022-08-01T06:56:10;21.60;99.90
8463;DHT22;4268;52.506;13.462;2022-08-01T06:58:36;21.70;99.90
8463;DHT22;4268;52.506;13.462;2022-08-01T07:01:03;21.70;99.90
8463;DHT22;4268;52.506;13.462;2022-08-01T07:03:31;21.80;99.90
8463;DHT22;4268;52.506;13.462;2022-08-01T07:05:57;21.90;99.90
8463;DHT22;4268;52.506;13.462;2022-08-01T07:08:22;22.10;99.90
8463;DHT22;4268;52.506;13.462;2022-08-01T07:10:48;22.10;99.90
8463;DHT22;4268;52.506;13.462;2022-08-01T07:13:13;22.10;99.90
8463;DHT22;4268;52.506;13.462;2022-08-01T07:15:41;22.10;99.90
8463;DHT22;4268;52.506;13.462;2022-08-01T07:18:07;22.00;99.90
8463;DHT22;4268;52.506;13.462;2022-08-01T07:20:32;22.00;99.90
8463;DHT22;4268;52.506;13.462;2022-08-01T07:22:58;21.90;99.90
8463;DHT22;4268;52.506;13.462;2022-08-01T07:25:23;21.80;99.90
8463;DHT22;4268;52.506;13.462;2022-08-01T07:27:49;21.80;99.90
8463;DHT22;4268;52.506;13.462;2022-08-01T07:30:14;21.70;99.90
8463;DHT22;4268;52.506;13.462;2022-08-01T07:32:40;21.80;99.90
8463;DHT22;4268;52.506;13.462;2022-08-01T07:35:06;21.90;99.90
8463;DHT22;4268;52.506;13.462;2022-08-01T07:37:31;22.00;99.90
8463;DHT22;4268;52.506;13.462;2022-08-01T07:39:57;22.00;99.90
8463;DHT22;4268;52.506;13.462;2022-08-01T07:42:22;22.00;99.90
8463;DHT22;4268;52.506;13.462;2022-08-01T07:44:47;22.00;99.90
8463;DHT22;4268;52.506;13.462;2022-08-01T07:47:13;22.00;99.90
8463;DHT22;4268;52.506;13.462;2022-08-01T07:49:39;21.80;99.90
8463;DHT22;4268;52.506;13.462;2022-08-01T07:52:04;21.80;99.90
8463;DHT22;4268;52.506;13.462;2022-08-01T07:54:33;21.70;99.90
8463;DHT22;4268;52.506;13.462;2022-08-01T07:56:59;21.70;99.90
8463;DHT22;4268;52.506;13.462;2022-08-01T07:59:24;21.70;99.90
8463;DHT22;4268;52.506;13.462;2022-08-01T08:01:50;21.70;99.90
8463;DHT22;4268;52.506;13.462;2022-08-01T08:04:17;21.90;99.90
8463;DHT22;4268;52.506;13.462;2022-08-01T08:06:43;22.10;99.90
8463;DHT22;4268;52.506;13.462;2022-08-01T08:09:10;22.20;99.90
8463;DHT22;4268;52.506;13.462;2022-08-01T08:11:35;22.10;99.90
8463;DHT22;4268;52.506;13.462;2022-08-01T08:14:01;22.10;99.90
8463;DHT22;4268;52.506;13.462;2022-08-01T08:16:26;22.00;99.90
8463;DHT22;4268;52.506;13.462;2022-08-01T08:18:52;21.90;99.90
8463;DHT22;4268;52.506;13.462;2022-08-01T08:21:17;21.80;99.90
8463;DHT22;4268;52.506;13.462;2022-08-01T08:23:43;21.70;99.90
8463;DHT22;4268;52.506;13.462;2022-08-01T08:26:27;21.60;99.90
8463;DHT22;4268;52.506;13.462;2022-08-01T08:28:52;21.50;99.90
8463;DHT22;4268;52.506;13.462;2022-08-01T08:31:18;21.40;99.90
8463;DHT22;4268;52.506;13.462;2022-08-01T08:33:43;21.40;99.90
8463;DHT22;4268;52.506;13.462;2022-08-01T08:36:09;21.50;99.90
8463;DHT22;4268;52.506;13.462;2022-08-01T08:38:36;21.60;99.90
8463;DHT22;4268;52.506;13.462;2022-08-01T08:41:01;21.60;99.90
8463;DHT22;4268;52.506;13.462;2022-08-01T08:43:27;21.70;99.90
8463;DHT22;4268;52.506;13.462;2022-08-01T08:45:53;21.90;99.90
8463;DHT22;4268;52.506;13.462;2022-08-01T08:48:19;22.00;99.90
8463;DHT22;4268;52.506;13.462;2022-08-01T08:50:45;22.10;99.90
8463;DHT22;4268;52.506;13.462;2022-08-01T08:53:13;22.10;99.90
8463;DHT22;4268;52.506;13.462;2022-08-01T08:55:40;22.30;99.90
8463;DHT22;4268;52.506;13.462;2022-08-01T08:58:12;22.50;99.90
8463;DHT22;4268;52.506;13.462;2022-08-01T09:00:41;22.60;99.90
8463;DHT22;4268;52.506;13.462;2022-08-01T09:03:07;22.70;99.90
8463;DHT22;4268;52.506;13.462;2022-08-01T09:05:32;22.60;99.90
8463;DHT22;4268;52.506;13.462;2022-08-01T09:07:58;22.60;99.90
8463;DHT22;4268;52.506;13.462;2022-08-01T09:10:23;22.50;99.90
8463;DHT22;4268;52.506;13.462;2022-08-01T09:13:03;22.50;99.90
8463;DHT22;4268;52.506;13.462;2022-08-01T09:15:51;22.50;99.90
8463;DHT22;4268;52.506;13.462;2022-08-01T09:18:25;22.60;99.90
8463;DHT22;4268;52.506;13.462;2022-08-01T09:21:14;22.80;99.90
8463;DHT22;4268;52.506;13.462;2022-08-01T09:23:53;23.00;99.90
8463;DHT22;4268;52.506;13.462;2022-08-01T09:26:23;23.10;99.90
8463;DHT22;4268;52.506;13.462;2022-08-01T09:28:53;23.20;99.90
8463;DHT22;4268;52.506;13.462;2022-08-01T09:31:19;23.20;99.90
8463;DHT22;4268;52.506;13.462;2022-08-01T09:33:53;23.10;99.90
8463;DHT22;4268;52.506;13.462;2022-08-01T09:36:23;23.00;99.90
8463;DHT22;4268;52.506;13.462;2022-08-01T09:38:51;22.90;99.90
8463;DHT22;4268;52.506;13.462;2022-08-01T09:41:17;22.90;99.90
8463;DHT22;4268;52.506;13.462;2022-08-01T09:43:53;23.00;99.90
8463;DHT22;4268;52.506;13.462;2022-08-01T09:46:18;23.00;99.90
8463;DHT22;4268;52.506;13.462;2022-08-01T09:49:02;23.10;99.90
8463;DHT22;4268;52.506;13.462;2022-08-01T09:51:38;23.10;99.90
8463;DHT22;4268;52.506;13.462;2022-08-01T09:54:05;23.00;99.90
8463;DHT22;4268;52.506;13.462;2022-08-01T09:56:41;23.00;99.90
8463;DHT22;4268;52.506;13.462;2022-08-01T09:59:08;22.80;99.90
8463;DHT22;4268;52.506;13.462;2022-08-01T10:01:46;22.70;99.90
8463;DHT22;4268;52.506;13.462;2022-08-01T10:04:17;22.70;99.90
8463;DHT22;4268;52.506;13.462;2022-08-01T10:06:49;22.60;99.90
8463;DHT22;4268;52.506;13.462;2022-08-01T10:09:31;22.60;99.90
8463;DHT22;4268;52.506;13.462;2022-08-01T10:11:59;22.60;99.90
8463;DHT22;4268;52.506;13.462;2022-08-01T10:14:26;22.70;99.90
8463;DHT22;4268;52.506;13.462;2022-08-01T10:16:52;22.70;99.90
8463;DHT22;4268;52.506;13.462;2022-08-01T10:19:21;22.70;99.90
8463;DHT22;4268;52.506;13.462;2022-08-01T10:21:49;22.70;99.90
8463;DHT22;4268;52.506;13.462;2022-08-01T10:24:18;22.70;99.90
8463;DHT22;4268;52.506;13.462;2022-08-01T10:26:47;22.70;99.90
8463;DHT22;4268;52.506;13.462;2022-08-01T10:29:15;22.70;99.90
8463;DHT22;4268;52.506;13.462;2022-08-01T10:31:44;22.80;99.90
8463;DHT22;4268;52.506;13.462;2022-08-01T10:34:11;22.80;99.90
8463;DHT22;4268;52.506;13.462;2022-08-01T10:36:38;22.70;99.90
8463;DHT22;4268;52.506;13.462;2022-08-01T10:39:05;22.70;99.90
8463;DHT22;4268;52.506;13.462;2022-08-01T10:41:33;22.70;99.90
8463;DHT22;4268;52.506;13.462;2022-08-01T10:44:00;22.60;99.90
8463;DHT22;4268;52.506;13.462;2022-08-01T10:46:27;22.60;99.90
8463;DHT22;4268;52.506;13.462;2022-08-01T10:49:00;22.60;99.90
8463;DHT22;4268;52.506;13.462;2022-08-01T10:51:28;22.70;99.90
8463;DHT22;4268;52.506;13.462;2022-08-01T10:53:54;22.70;99.90
8463;DHT22;4268;52.506;13.462;2022-08-01T10:56:21;22.70;99.90
8463;DHT22;4268;52.506;13.462;2022-08-01T10:58:48;22.70;99.90
8463;DHT22;4268;52.506;13.462;2022-08-01T11:03:40;22.90;99.90
8463;DHT22;4268;52.506;13.462;2022-08-01T11:06:06;22.90;99.90
8463;DHT22;4268;52.506;13.462;2022-08-01T11:08:36;23.00;99.90
8463;DHT22;4268;52.506;13.462;2022-08-01T11:11:03;23.00;99.90
8463;DHT22;4268;52.506;13.462;2022-08-01T11:16:31;23.00;99.90
8463;DHT22;4268;52.506;13.462;2022-08-01T11:18:57;23.10;99.90
8463;DHT22;4268;52.506;13.462;2022-08-01T11:27:19;23.50;99.90
8463;DHT22;4268;52.506;13.462;2022-08-01T11:32:50;23.20;99.90
8463;DHT22;4268;52.506;13.462;2022-08-01T11:35:16;23.10;99.90
8463;DHT22;4268;52.506;13.462;2022-08-01T11:37:42;22.90;99.90
8463;DHT22;4268;52.506;13.462;2022-08-01T11:40:15;22.70;99.90
8463;DHT22;4268;52.506;13.462;2022-08-01T11:42:41;22.40;99.90
8463;DHT22;4268;52.506;13.462;2022-08-01T11:45:07;22.30;99.90
8463;DHT22;4268;52.506;13.462;2022-08-01T11:47:43;22.10;99.90
8463;DHT22;4268;52.506;13.462;2022-08-01T11:50:33;22.10;99.90
8463;DHT22;4268;52.506;13.462;2022-08-01T11:53:04;22.10;99.90
8463;DHT22;4268;52.506;13.462;2022-08-01T11:55:30;22.30;99.90
8463;DHT22;4268;52.506;13.462;2022-08-01T11:58:03;22.40;99.90
8463;DHT22;4268;52.506;13.462;2022-08-01T12:00:29;22.50;99.90
8463;DHT22;4268;52.506;13.462;2022-08-01T12:03:01;22.60;99.90
8463;DHT22;4268;52.506;13.462;2022-08-01T12:05:28;22.70;99.90
8463;DHT22;4268;52.506;13.462;2022-08-01T12:07:55;22.90;99.90
8463;DHT22;4268;52.506;13.462;2022-08-01T12:10:24;23.10;99.90
8463;DHT22;4268;52.506;13.462;2022-08-01T12:12:55;23.20;99.90
8463;DHT22;4268;52.506;13.462;2022-08-01T12:15:24;23.50;99.90
8463;DHT22;4268;52.506;13.462;2022-08-01T12:18:03;23.60;99.90
8463;DHT22;4268;52.506;13.462;2022-08-01T12:20:34;23.80;99.90
8463;DHT22;4268;52.506;13.462;2022-08-01T12:23:04;23.90;99.90
8463;DHT22;4268;52.506;13.462;2022-08-01T12:25:34;24.10;99.90
8463;DHT22;4268;52.506;13.462;2022-08-01T12:28:02;24.30;99.90
8463;DHT22;4268;52.506;13.462;2022-08-01T12:30:28;24.40;99.90
8463;DHT22;4268;52.506;13.462;2022-08-01T12:32:56;24.40;99.90
8463;DHT22;4268;52.506;13.462;2022-08-01T12:35:26;24.30;99.90
8463;DHT22;4268;52.506;13.462;2022-08-01T12:37:54;24.10;99.90
8463;DHT22;4268;52.506;13.462;2022-08-01T12:40:25;23.80;99.90
8463;DHT22;4268;52.506;13.462;2022-08-01T12:42:57;23.70;99.90
8463;DHT22;4268;52.506;13.462;2022-08-01T12:45:41;23.60;99.90
8463;DHT22;4268;52.506;13.462;2022-08-01T12:48:09;23.60;99.90
8463;DHT22;4268;52.506;13.462;2022-08-01T12:50:37;23.70;99.90
8463;DHT22;4268;52.506;13.462;2022-08-01T12:53:03;23.80;99.90
8463;DHT22;4268;52.506;13.462;2022-08-01T12:55:29;23.90;99.90
8463;DHT22;4268;52.506;13.462;2022-08-01T12:58:15;24.10;99.90
8463;DHT22;4268;52.506;13.462;2022-08-01T13:00:43;24.20;99.90
8463;DHT22;4268;52.506;13.462;2022-08-01T13:03:14;24.40;99.90
8463;DHT22;4268;52.506;13.462;2022-08-01T13:05:51;24.40;99.90
8463;DHT22;4268;52.506;13.462;2022-08-01T13:08:19;24.50;99.90
8463;DHT22;4268;52.506;13.462;2022-08-01T13:10:45;24.50;99.90
8463;DHT22;4268;52.506;13.462;2022-08-01T13:13:13;24.60;99.90
8463;DHT22;4268;52.506;13.462;2022-08-01T13:15:41;24.50;99.90
8463;DHT22;4268;52.506;13.462;2022-08-01T13:18:29;24.50;99.90
8463;DHT22;4268;52.506;13.462;2022-08-01T13:21:15;24.30;99.90
8463;DHT22;4268;52.506;13.462;2022-08-01T13:23:42;24.20;99.90
8463;DHT22;4268;52.506;13.462;2022-08-01T13:29:13;23.80;99.90
8463;DHT22;4268;52.506;13.462;2022-08-01T13:31:39;23.70;99.90
8463;DHT22;4268;52.506;13.462;2022-08-01T13:34:06;23.70;99.90
8463;DHT22;4268;52.506;13.462;2022-08-01T13:36:32;23.70;99.90
8463;DHT22;4268;52.506;13.462;2022-08-01T13:38:58;23.70;99.90
8463;DHT22;4268;52.506;13.462;2022-08-01T13:41:43;23.70;99.90
8463;DHT22;4268;52.506;13.462;2022-08-01T13:44:09;23.70;99.90
8463;DHT22;4268;52.506;13.462;2022-08-01T13:46:36;23.80;99.90
8463;DHT22;4268;52.506;13.462;2022-08-01T13:49:03;23.80;99.90
8463;DHT22;4268;52.506;13.462;2022-08-01T13:51:29;23.80;99.90
8463;DHT22;4268;52.506;13.462;2022-08-01T13:53:54;23.70;99.90
8463;DHT22;4268;52.506;13.462;2022-08-01T13:56:20;23.70;99.90
8463;DHT22;4268;52.506;13.462;2022-08-01T13:58:46;23.60;99.90
8463;DHT22;4268;52.506;13.462;2022-08-01T14:01:12;23.60;99.90
8463;DHT22;4268;52.506;13.462;2022-08-01T14:03:37;23.50;99.90
8463;DHT22;4268;52.506;13.462;2022-08-01T14:06:03;23.40;99.90
8463;DHT22;4268;52.506;13.462;2022-08-01T14:08:29;23.40;99.90
8463;DHT22;4268;52.506;13.462;2022-08-01T14:10:55;23.40;99.90
8463;DHT22;4268;52.506;13.462;2022-08-01T14:13:24;23.50;99.90
8463;DHT22;4268;52.506;13.462;2022-08-01T14:15:50;23.50;99.90
8463;DHT22;4268;52.506;13.462;2022-08-01T14:18:15;23.60;99.90
8463;DHT22;4268;52.506;13.462;2022-08-01T14:20:41;23.70;99.90
8463;DHT22;4268;52.506;13.462;2022-08-01T14:23:07;23.70;99.90
8463;DHT22;4268;52.506;13.462;2022-08-01T14:25:33;23.80;99.90
8463;DHT22;4268;52.506;13.462;2022-08-01T14:27:59;23.90;99.90
8463;DHT22;4268;52.506;13.462;2022-08-01T14:30:24;24.00;99.90
8463;DHT22;4268;52.506;13.462;2022-08-01T14:32:50;24.10;99.90
8463;DHT22;4268;52.506;13.462;2022-08-01T14:35:16;24.20;99.90
8463;DHT22;4268;52.506;13.462;2022-08-01T14:37:41;24.30;99.90
8463;DHT22;4268;52.506;13.462;2022-08-01T14:40:07;24.40;99.90
8463;DHT22;4268;52.506;13.462;2022-08-01T14:42:35;24.50;99.90
8463;DHT22;4268;52.506;13.462;2022-08-01T14:45:01;24.80;99.90
8463;DHT22;4268;52.506;13.462;2022-08-01T14:47:26;25.00;99.90
8463;DHT22;4268;52.506;13.462;2022-08-01T14:49:52;25.10;99.90
8463;DHT22;4268;52.506;13.462;2022-08-01T14:52:17;25.10;99.90
8463;DHT22;4268;52.506;13.462;2022-08-01T14:54:44;25.10;99.90
8463;DHT22;4268;52.506;13.462;2022-08-01T14:57:10;25.10;99.70
8463;DHT22;4268;52.506;13.462;2022-08-01T14:59:35;25.10;99.90
8463;DHT22;4268;52.506;13.462;2022-08-01T15:02:01;25.00;99.90
8463;DHT22;4268;52.506;13.462;2022-08-01T15:04:26;24.80;99.90
8463;DHT22;4268;52.506;13.462;2022-08-01T15:06:53;24.70;99.90
8463;DHT22;4268;52.506;13.462;2022-08-01T15:09:18;24.60;99.90
8463;DHT22;4268;52.506;13.462;2022-08-01T15:11:44;24.40;99.90
8463;DHT22;4268;52.506;13.462;2022-08-01T15:14:12;24.30;99.90
8463;DHT22;4268;52.506;13.462;2022-08-01T15:16:56;24.10;99.90
8463;DHT22;4268;52.506;13.462;2022-08-01T15:19:21;24.00;99.90
8463;DHT22;4268;52.506;13.462;2022-08-01T15:21:47;24.00;99.90
8463;DHT22;4268;52.506;13.462;2022-08-01T15:24:13;23.90;99.90
8463;DHT22;4268;52.506;13.462;2022-08-01T15:26:38;23.90;99.90
8463;DHT22;4268;52.506;13.462;2022-08-01T15:29:04;23.90;99.90
8463;DHT22;4268;52.506;13.462;2022-08-01T15:31:29;23.80;99.90
8463;DHT22;4268;52.506;13.462;2022-08-01T15:33:55;23.80;99.90
8463;DHT22;4268;52.506;13.462;2022-08-01T15:36:20;23.80;99.90
8463;DHT22;4268;52.506;13.462;2022-08-01T15:38:46;23.80;99.90
8463;DHT22;4268;52.506;13.462;2022-08-01T15:41:11;23.80;99.90
8463;DHT22;4268;52.506;13.462;2022-08-01T15:43:37;23.80;99.80
8463;DHT22;4268;52.506;13.462;2022-08-01T15:46:03;23.80;99.70
8463;DHT22;4268;52.506;13.462;2022-08-01T15:48:29;23.90;99.80
8463;DHT22;4268;52.506;13.462;2022-08-01T15:50:55;23.90;99.70
8463;DHT22;4268;52.506;13.462;2022-08-01T15:53:20;23.90;99.70
8463;DHT22;4268;52.506;13.462;2022-08-01T15:55:46;23.90;99.30
8463;DHT22;4268;52.506;13.462;2022-08-01T15:58:11;23.90;99.40
8463;DHT22;4268;52.506;13.462;2022-08-01T16:00:37;23.90;99.40
8463;DHT22;4268;52.506;13.462;2022-08-01T16:03:02;23.90;98.90
8463;DHT22;4268;52.506;13.462;2022-08-01T16:05:28;23.90;98.90
8463;DHT22;4268;52.506;13.462;2022-08-01T16:07:53;23.90;98.80
8463;DHT22;4268;52.506;13.462;2022-08-01T16:10:19;23.90;98.90